Clay Center, Ohio
Current Conditions -  °F | °C
As of 6:53 AM on Monday 26 Jan 2015 (Local Time) from KTDZ Reporting Station
Few Clouds Few Clouds  
Wind Chill:   Ceiling: Unl
Heat Index: 13°   Visibility: 10mi
Dew Point:   Wind: 9mph
Humidity: 71%   Direction: 20°NNE
Pressure: 29.9"   Gusts: NA
Location:  41.56°N, 83.36°W
Report Text: KTDZ 261153Z AUTO 02008KT 10SM FEW015 M11/M15 A2990 RMK AO2 SLP137 70002 T11061150 11078 21106 55004 TSNO
Loading
Personal Weather Stations






























Interactive Weather Map New forecast layout! Learn more

10-Day Weather Forecast

Advertisements
Track Severe Weather on mobile